createdAt,value
2023-05-14T00:16:57.029Z,11.50
2023-05-14T00:19:23.863Z,11.50
2023-05-14T00:21:50.748Z,11.50
2023-05-14T00:24:17.631Z,11.50
2023-05-14T00:26:44.651Z,11.50
2023-05-14T00:29:11.512Z,11.50
2023-05-14T00:31:38.379Z,11.50
2023-05-14T00:34:05.354Z,11.40
2023-05-14T00:36:32.186Z,11.40
2023-05-14T00:38:59.011Z,11.40
2023-05-14T00:41:25.989Z,11.40
2023-05-14T00:43:52.962Z,11.40
2023-05-14T00:46:20.427Z,11.30
2023-05-14T00:48:47.311Z,11.30
2023-05-14T00:51:14.211Z,11.30
2023-05-14T00:53:42.052Z,11.20
2023-05-14T00:56:09.481Z,11.20
2023-05-14T00:58:36.420Z,11.20
2023-05-14T01:01:03.442Z,11.20
2023-05-14T01:03:39.767Z,11.20
2023-05-14T01:06:14.078Z,11.10
2023-05-14T01:09:01.155Z,11.20
2023-05-14T01:11:49.792Z,11.20
2023-05-14T01:14:16.660Z,11.10
2023-05-14T01:16:45.726Z,11.10
2023-05-14T01:19:26.948Z,11.10
2023-05-14T01:21:53.972Z,11.10
2023-05-14T01:24:20.793Z,11.10
2023-05-14T01:26:47.740Z,11.00
2023-05-14T01:29:22.515Z,11.00
2023-05-14T01:31:51.443Z,11.00
2023-05-14T01:34:23.141Z,11.00
2023-05-14T01:36:52.403Z,11.00
2023-05-14T01:39:20.100Z,11.00
2023-05-14T01:41:47.457Z,11.00
2023-05-14T01:44:14.778Z,11.00
2023-05-14T01:46:41.649Z,11.00
2023-05-14T01:49:08.569Z,10.90
2023-05-14T01:51:35.737Z,10.90
2023-05-14T01:54:02.547Z,10.90
2023-05-14T01:56:29.542Z,10.90
2023-05-14T01:58:56.877Z,10.80
2023-05-14T02:01:23.822Z,10.80
2023-05-14T02:03:51.353Z,10.80
2023-05-14T02:06:18.167Z,10.80
2023-05-14T02:08:45.310Z,10.70
2023-05-14T02:11:12.134Z,10.70
2023-05-14T02:13:38.895Z,10.70
2023-05-14T02:16:06.205Z,10.70
2023-05-14T02:18:33.007Z,10.70
2023-05-14T02:20:59.924Z,10.70
2023-05-14T02:23:34.466Z,10.70
2023-05-14T02:26:09.708Z,10.60
2023-05-14T02:28:36.621Z,10.60
2023-05-14T02:31:03.580Z,10.60
2023-05-14T02:33:30.570Z,10.60
2023-05-14T02:35:57.528Z,10.60
2023-05-14T02:38:24.376Z,10.50
2023-05-14T02:40:51.254Z,10.50
2023-05-14T02:43:18.069Z,10.50
2023-05-14T02:45:44.881Z,10.50
2023-05-14T02:48:11.769Z,10.50
2023-05-14T02:50:38.689Z,10.50
2023-05-14T02:53:05.677Z,10.40
2023-05-14T02:55:32.524Z,10.40
2023-05-14T02:57:59.401Z,10.40
2023-05-14T03:00:26.249Z,10.40
2023-05-14T03:02:53.612Z,10.30
2023-05-14T03:05:21.163Z,10.30
2023-05-14T03:07:48.060Z,10.30
2023-05-14T03:10:14.954Z,10.20
2023-05-14T03:12:41.819Z,10.20
2023-05-14T03:15:09.530Z,10.20
2023-05-14T03:17:36.518Z,10.20
2023-05-14T03:20:03.974Z,10.10
2023-05-14T03:22:30.857Z,10.20
2023-05-14T03:24:57.724Z,10.10
2023-05-14T03:27:24.538Z,10.10
2023-05-14T03:29:51.344Z,10.10
2023-05-14T03:32:19.072Z,10.10
2023-05-14T03:34:45.989Z,10.10
2023-05-14T03:37:12.895Z,10.10
2023-05-14T03:39:39.776Z,10.10
2023-05-14T03:42:06.697Z,10.00
2023-05-14T03:44:33.503Z,10.00
2023-05-14T03:47:00.517Z,10.00
2023-05-14T03:49:27.326Z,10.00
2023-05-14T03:51:54.260Z,10.00
2023-05-14T03:54:21.089Z,10.10
2023-05-14T03:56:47.891Z,10.10
2023-05-14T03:59:14.702Z,10.10
2023-05-14T04:01:41.564Z,10.10
2023-05-14T04:04:08.456Z,10.10
2023-05-14T04:06:35.430Z,10.20
2023-05-14T04:09:03.435Z,10.10
2023-05-14T04:11:30.313Z,10.10
2023-05-14T04:13:57.119Z,10.10
2023-05-14T04:16:24.159Z,10.10
2023-05-14T04:18:51.273Z,10.20
2023-05-14T04:21:18.241Z,10.20
2023-05-14T04:23:45.039Z,10.20
2023-05-14T04:26:11.925Z,10.20
2023-05-14T04:28:38.770Z,10.30
2023-05-14T04:31:05.853Z,10.30
2023-05-14T04:33:32.752Z,10.40
2023-05-14T04:35:59.574Z,10.40
2023-05-14T04:38:26.722Z,10.50
2023-05-14T04:40:53.557Z,10.50
2023-05-14T04:43:20.563Z,10.50
2023-05-14T04:45:47.418Z,10.60
2023-05-14T04:48:14.329Z,10.60
2023-05-14T04:50:41.166Z,10.60
2023-05-14T04:53:07.967Z,10.60
2023-05-14T04:55:34.830Z,10.70
2023-05-14T04:58:01.674Z,10.70
2023-05-14T05:00:29.341Z,10.70
2023-05-14T05:02:56.259Z,10.70
2023-05-14T05:05:23.661Z,10.80
2023-05-14T05:07:50.493Z,10.80
2023-05-14T05:10:17.301Z,10.80
2023-05-14T05:12:44.192Z,10.90
2023-05-14T05:15:11.216Z,10.90
2023-05-14T05:17:38.188Z,11.00
2023-05-14T05:20:08.061Z,11.00
2023-05-14T05:22:34.956Z,11.00
2023-05-14T05:25:01.915Z,11.10
2023-05-14T05:27:28.723Z,11.10
2023-05-14T05:29:55.880Z,11.10
2023-05-14T05:32:23.182Z,11.20
2023-05-14T05:34:51.952Z,11.20
2023-05-14T05:37:18.835Z,11.20
2023-05-14T05:39:46.297Z,11.30
2023-05-14T05:42:13.108Z,11.40
2023-05-14T05:44:39.950Z,11.50
2023-05-14T05:47:06.864Z,11.50
2023-05-14T05:49:33.787Z,11.70
2023-05-14T05:52:00.736Z,11.70
2023-05-14T05:54:27.561Z,11.80
2023-05-14T05:56:54.413Z,11.80
2023-05-14T05:59:21.647Z,11.90
2023-05-14T06:01:50.200Z,11.90
2023-05-14T06:04:17.230Z,12.10
2023-05-14T06:06:44.078Z,12.20
2023-05-14T06:09:10.978Z,12.20
2023-05-14T06:11:37.811Z,12.40
2023-05-14T06:14:04.736Z,12.40
2023-05-14T06:16:31.657Z,12.50
2023-05-14T06:18:58.798Z,12.60
2023-05-14T06:21:25.746Z,12.70
2023-05-14T06:23:52.540Z,12.80
2023-05-14T06:26:19.557Z,13.00
2023-05-14T06:28:46.365Z,13.20
2023-05-14T06:31:13.731Z,13.60
2023-05-14T06:33:40.688Z,14.00
2023-05-14T06:36:10.989Z,14.50
2023-05-14T06:38:38.127Z,15.00
2023-05-14T06:41:04.963Z,15.60
2023-05-14T06:43:31.852Z,16.00
2023-05-14T06:45:58.676Z,16.40
2023-05-14T06:48:27.891Z,16.70
2023-05-14T06:50:55.166Z,16.80
2023-05-14T06:53:22.004Z,17.00
2023-05-14T06:55:48.901Z,17.10
2023-05-14T06:58:15.790Z,17.30
2023-05-14T07:00:42.914Z,17.40
2023-05-14T07:03:09.992Z,17.60
2023-05-14T07:05:36.954Z,17.70
2023-05-14T07:08:03.887Z,18.00
2023-05-14T07:10:30.983Z,18.40
2023-05-14T07:12:58.223Z,19.10
2023-05-14T07:15:25.112Z,20.10
2023-05-14T07:17:52.003Z,21.30
2023-05-14T07:20:18.913Z,22.60
2023-05-14T07:22:45.797Z,23.70
2023-05-14T07:25:12.740Z,24.80
2023-05-14T07:27:39.596Z,25.60
2023-05-14T07:30:07.563Z,26.40
2023-05-14T07:32:34.443Z,27.00
2023-05-14T07:35:01.627Z,27.50
2023-05-14T07:37:28.669Z,27.60
2023-05-14T07:39:56.141Z,27.40
2023-05-14T07:42:35.193Z,27.30
2023-05-14T07:45:03.976Z,27.10
2023-05-14T07:47:31.084Z,26.60
2023-05-14T07:49:58.248Z,26.50
2023-05-14T07:52:25.259Z,26.60
2023-05-14T07:54:52.363Z,26.80
2023-05-14T07:57:20.004Z,26.90
2023-05-14T07:59:48.476Z,27.20
2023-05-14T08:02:16.929Z,27.60
2023-05-14T08:04:44.265Z,27.90
2023-05-14T08:07:11.639Z,28.30
2023-05-14T08:09:38.612Z,28.40
2023-05-14T08:12:06.116Z,28.10
2023-05-14T08:14:33.234Z,27.40
2023-05-14T08:17:00.152Z,26.70
2023-05-14T08:19:27.918Z,26.30
2023-05-14T08:21:54.825Z,26.00
2023-05-14T08:24:21.795Z,25.90
2023-05-14T08:26:48.715Z,25.90
2023-05-14T08:29:16.611Z,25.70
2023-05-14T08:31:43.880Z,25.40
2023-05-14T08:34:10.799Z,25.20
2023-05-14T08:36:38.959Z,25.00
2023-05-14T08:39:07.757Z,24.90
2023-05-14T08:41:35.553Z,24.60
2023-05-14T08:44:13.770Z,24.40
2023-05-14T08:46:41.871Z,24.10
2023-05-14T08:49:14.081Z,23.70
2023-05-14T08:51:41.543Z,23.30
2023-05-14T08:54:08.578Z,22.90
2023-05-14T08:56:36.937Z,22.60
2023-05-14T08:59:03.828Z,22.40
2023-05-14T09:01:30.959Z,22.50
2023-05-14T09:03:58.739Z,22.70
2023-05-14T09:06:26.524Z,23.00
2023-05-14T09:08:54.252Z,23.40
2023-05-14T09:11:21.608Z,23.90
2023-05-14T09:13:48.454Z,24.70
2023-05-14T09:16:17.954Z,25.50
2023-05-14T09:18:45.781Z,26.00
2023-05-14T09:21:16.542Z,26.30
2023-05-14T09:23:44.593Z,26.60
2023-05-14T09:26:18.750Z,26.70
2023-05-14T09:28:46.028Z,26.80
2023-05-14T09:31:13.068Z,27.10
2023-05-14T09:33:40.021Z,27.30
2023-05-14T09:36:07.273Z,27.40
2023-05-14T09:38:34.355Z,27.50
2023-05-14T09:41:01.266Z,27.60
2023-05-14T09:43:28.340Z,27.80
2023-05-14T09:45:55.288Z,27.90
2023-05-14T09:48:22.954Z,27.90
2023-05-14T09:50:49.874Z,27.90
2023-05-14T09:53:17.780Z,27.80
2023-05-14T09:55:45.522Z,27.80
2023-05-14T09:58:14.505Z,27.70
2023-05-14T10:00:45.604Z,27.60
2023-05-14T10:03:17.210Z,27.40
2023-05-14T10:05:48.015Z,27.30
2023-05-14T10:08:26.815Z,27.30
2023-05-14T10:10:59.359Z,27.20
2023-05-14T10:13:31.921Z,27.30
2023-05-14T10:16:20.538Z,27.60
2023-05-14T10:18:55.792Z,27.90
2023-05-14T10:21:25.536Z,28.20
2023-05-14T10:23:52.733Z,28.50
2023-05-14T10:26:21.206Z,28.90
2023-05-14T10:28:49.538Z,29.30
2023-05-14T10:31:17.338Z,29.70
2023-05-14T10:33:50.401Z,29.80
2023-05-14T10:36:18.673Z,29.70
2023-05-14T10:38:47.101Z,29.40
2023-05-14T10:41:18.030Z,29.30
2023-05-14T10:43:45.029Z,29.50
2023-05-14T10:46:14.053Z,30.10
2023-05-14T10:48:45.100Z,30.80
2023-05-14T10:51:12.582Z,31.60
2023-05-14T10:53:42.408Z,32.10
2023-05-14T10:56:11.034Z,32.50
2023-05-14T10:58:43.061Z,33.00
2023-05-14T11:01:12.651Z,33.30
2023-05-14T11:03:45.425Z,33.40
2023-05-14T11:06:15.006Z,33.40
2023-05-14T11:08:42.734Z,33.20
2023-05-14T11:11:10.966Z,33.00
2023-05-14T11:13:38.481Z,32.80
2023-05-14T11:16:15.031Z,32.70
2023-05-14T11:19:00.517Z,32.60
2023-05-14T11:21:27.701Z,32.10
2023-05-14T11:23:55.776Z,31.80
2023-05-14T11:26:24.157Z,31.60
2023-05-14T11:28:51.246Z,31.30
2023-05-14T11:31:19.025Z,31.00
2023-05-14T11:33:46.029Z,30.70
2023-05-14T11:36:12.845Z,30.60
2023-05-14T11:38:51.256Z,30.50
2023-05-14T11:41:22.027Z,30.50
2023-05-14T11:43:49.095Z,30.50
2023-05-14T11:46:19.351Z,30.60
2023-05-14T11:48:46.277Z,30.60
2023-05-14T11:51:13.135Z,30.70
2023-05-14T11:53:40.041Z,30.70
2023-05-14T11:56:09.518Z,30.70
2023-05-14T11:58:36.845Z,30.70
2023-05-14T12:01:03.722Z,30.50
2023-05-14T12:03:31.154Z,30.40
2023-05-14T12:06:02.525Z,30.50
2023-05-14T12:08:31.362Z,30.90
2023-05-14T12:11:00.135Z,31.50
2023-05-14T12:13:32.527Z,32.00
2023-05-14T12:16:02.482Z,32.50
2023-05-14T12:18:33.490Z,32.90
2023-05-14T12:21:05.399Z,33.00
2023-05-14T12:23:33.066Z,33.10
2023-05-14T12:26:06.292Z,33.20
2023-05-14T12:28:35.369Z,33.40
2023-05-14T12:31:04.726Z,33.50
2023-05-14T12:33:31.612Z,33.40
2023-05-14T12:36:10.083Z,33.00
2023-05-14T12:38:41.648Z,32.50
2023-05-14T12:41:08.528Z,32.10
2023-05-14T12:43:35.372Z,31.80
2023-05-14T12:46:02.604Z,31.60
2023-05-14T12:48:30.010Z,31.50
2023-05-14T12:50:56.785Z,31.20
2023-05-14T12:53:23.747Z,30.90
2023-05-14T12:55:50.661Z,30.60
2023-05-14T12:58:17.488Z,30.40
2023-05-14T13:00:44.382Z,30.20
2023-05-14T13:03:11.383Z,30.00
2023-05-14T13:05:38.232Z,30.00
2023-05-14T13:08:05.143Z,30.00
2023-05-14T13:10:32.185Z,29.80
2023-05-14T13:12:59.455Z,29.60
2023-05-14T13:15:26.469Z,29.40
2023-05-14T13:17:53.364Z,29.30
2023-05-14T13:20:20.298Z,29.20
2023-05-14T13:22:47.508Z,29.20
2023-05-14T13:25:14.323Z,29.10
2023-05-14T13:27:41.137Z,29.10
2023-05-14T13:30:08.395Z,29.00
2023-05-14T13:32:35.516Z,28.90
2023-05-14T13:35:02.340Z,28.70
2023-05-14T13:37:29.119Z,28.40
2023-05-14T13:39:56.025Z,28.10
2023-05-14T13:42:23.663Z,28.00
2023-05-14T13:44:50.842Z,27.80
2023-05-14T13:47:17.810Z,27.60
2023-05-14T13:49:44.746Z,27.40
2023-05-14T13:52:11.543Z,27.20
2023-05-14T13:54:38.354Z,27.10
2023-05-14T13:57:05.568Z,26.90
2023-05-14T13:59:32.480Z,26.80
2023-05-14T14:01:59.466Z,26.70
2023-05-14T14:04:29.012Z,26.60
2023-05-14T14:06:56.298Z,26.50
2023-05-14T14:09:23.240Z,26.40
2023-05-14T14:11:50.465Z,26.40
2023-05-14T14:14:18.236Z,26.30
2023-05-14T14:16:45.262Z,26.30
2023-05-14T14:19:12.187Z,26.40
2023-05-14T14:21:42.673Z,26.40
2023-05-14T14:24:09.555Z,26.30
2023-05-14T14:26:36.505Z,26.20
2023-05-14T14:29:03.464Z,26.10
2023-05-14T14:31:30.845Z,25.90
2023-05-14T14:33:57.749Z,25.90
2023-05-14T14:36:24.527Z,25.70
2023-05-14T14:38:51.506Z,25.60
2023-05-14T14:41:18.369Z,25.50
2023-05-14T14:43:45.324Z,25.50
2023-05-14T14:46:12.138Z,25.60
2023-05-14T14:48:39.046Z,25.80
2023-05-14T14:51:07.395Z,25.90
2023-05-14T14:53:35.650Z,26.00
2023-05-14T14:56:02.619Z,26.00
2023-05-14T14:58:32.145Z,26.10
2023-05-14T15:00:59.166Z,26.10
2023-05-14T15:03:26.655Z,26.10
2023-05-14T15:05:54.026Z,25.90
2023-05-14T15:08:27.422Z,25.90
2023-05-14T15:10:55.898Z,25.90
2023-05-14T15:13:22.875Z,26.00
2023-05-14T15:15:53.263Z,25.90
2023-05-14T15:18:20.187Z,25.90
2023-05-14T15:20:47.261Z,25.80
2023-05-14T15:23:14.403Z,25.70
2023-05-14T15:25:41.206Z,25.60
2023-05-14T15:28:08.134Z,25.40
2023-05-14T15:30:35.129Z,25.20
2023-05-14T15:33:02.070Z,25.00
2023-05-14T15:35:28.983Z,24.80
2023-05-14T15:37:57.294Z,24.50
2023-05-14T15:40:24.640Z,24.40
2023-05-14T15:42:51.736Z,24.20
2023-05-14T15:45:18.751Z,24.00
2023-05-14T15:47:45.631Z,23.90
2023-05-14T15:50:12.500Z,23.70
2023-05-14T15:52:41.496Z,23.50
2023-05-14T15:55:09.043Z,23.40
2023-05-14T15:57:35.957Z,23.30
2023-05-14T16:00:12.529Z,23.20
2023-05-14T16:02:42.642Z,23.10
2023-05-14T16:05:09.738Z,23.00
2023-05-14T16:07:37.118Z,23.00
2023-05-14T16:10:04.647Z,22.90
2023-05-14T16:12:31.790Z,22.90
2023-05-14T16:14:59.915Z,22.90
2023-05-14T16:17:27.933Z,22.80
2023-05-14T16:19:56.340Z,22.80
2023-05-14T16:22:23.572Z,22.80
2023-05-14T16:24:50.513Z,22.80
2023-05-14T16:27:19.131Z,22.80
2023-05-14T16:29:46.027Z,22.80
2023-05-14T16:32:13.006Z,22.70
2023-05-14T16:34:40.573Z,22.70
2023-05-14T16:37:08.089Z,22.50
2023-05-14T16:39:35.076Z,22.50
2023-05-14T16:42:01.898Z,22.30
2023-05-14T16:44:28.729Z,22.20
2023-05-14T16:46:56.399Z,22.20
2023-05-14T16:49:23.414Z,22.00
2023-05-14T16:52:00.861Z,22.00
2023-05-14T16:54:27.818Z,21.90
2023-05-14T16:56:54.711Z,21.90
2023-05-14T16:59:25.138Z,21.80
2023-05-14T17:01:52.116Z,21.80
2023-05-14T17:04:21.197Z,21.70
2023-05-14T17:06:48.177Z,21.70
2023-05-14T17:09:15.231Z,21.60
2023-05-14T17:11:42.025Z,21.60
2023-05-14T17:14:08.939Z,21.50
2023-05-14T17:16:35.841Z,21.50
2023-05-14T17:19:02.961Z,21.40
2023-05-14T17:21:31.383Z,21.30
2023-05-14T17:23:58.570Z,21.30
2023-05-14T17:26:26.331Z,21.20
2023-05-14T17:28:53.257Z,21.10
2023-05-14T17:31:21.953Z,21.10
2023-05-14T17:33:49.251Z,21.00
2023-05-14T17:36:16.100Z,21.00
2023-05-14T17:38:43.114Z,20.90
2023-05-14T17:41:09.895Z,20.80
2023-05-14T17:43:36.745Z,20.80
2023-05-14T17:46:04.167Z,20.70
2023-05-14T17:48:31.037Z,20.60
2023-05-14T17:50:57.865Z,20.60
2023-05-14T17:53:24.762Z,20.50
2023-05-14T17:55:51.661Z,20.50
2023-05-14T17:58:18.538Z,20.40
2023-05-14T18:00:45.525Z,20.30
2023-05-14T18:03:14.273Z,20.30
2023-05-14T18:05:41.432Z,20.20
2023-05-14T18:08:09.531Z,20.10
2023-05-14T18:10:36.393Z,20.00
2023-05-14T18:13:03.425Z,20.00
2023-05-14T18:15:31.531Z,19.90
2023-05-14T18:17:58.985Z,19.80
2023-05-14T18:20:25.944Z,19.80
2023-05-14T18:22:52.797Z,19.70
2023-05-14T18:25:19.710Z,19.60
2023-05-14T18:27:46.992Z,19.50
2023-05-14T18:30:15.200Z,19.40
2023-05-14T18:32:44.160Z,19.30
2023-05-14T18:35:12.491Z,19.20
2023-05-14T18:37:39.578Z,19.20
2023-05-14T18:40:07.103Z,19.10
2023-05-14T18:42:34.600Z,19.00
2023-05-14T18:45:01.623Z,18.90
2023-05-14T18:47:28.769Z,18.90
2023-05-14T18:49:58.096Z,18.80
2023-05-14T18:52:26.275Z,18.70
2023-05-14T18:54:54.627Z,18.60
2023-05-14T18:57:22.026Z,18.50
2023-05-14T18:59:48.904Z,18.30
2023-05-14T19:02:16.273Z,18.20
2023-05-14T19:04:52.262Z,18.00
2023-05-14T19:07:21.124Z,17.80
2023-05-14T19:09:48.583Z,17.60
2023-05-14T19:12:15.516Z,17.40
2023-05-14T19:14:42.382Z,17.20
2023-05-14T19:17:09.268Z,17.00
2023-05-14T19:19:39.532Z,16.90
2023-05-14T19:22:06.884Z,16.70
2023-05-14T19:24:33.959Z,16.60
2023-05-14T19:27:00.990Z,16.40
2023-05-14T19:29:27.811Z,16.40
2023-05-14T19:31:54.694Z,16.20
2023-05-14T19:34:21.574Z,16.10
2023-05-14T19:36:48.811Z,16.00
2023-05-14T19:39:15.801Z,15.90
2023-05-14T19:41:42.697Z,15.80
2023-05-14T19:44:09.523Z,15.60
2023-05-14T19:46:36.429Z,15.50
2023-05-14T19:49:03.437Z,15.40
2023-05-14T19:51:30.563Z,15.30
2023-05-14T19:53:57.472Z,15.20
2023-05-14T19:56:25.203Z,15.10
2023-05-14T19:58:54.179Z,15.10
2023-05-14T20:01:21.107Z,15.00
2023-05-14T20:03:48.364Z,14.90
2023-05-14T20:06:15.589Z,14.90
2023-05-14T20:08:42.473Z,14.80
2023-05-14T20:11:09.282Z,14.70
2023-05-14T20:13:36.781Z,14.70
2023-05-14T20:16:03.770Z,14.60
2023-05-14T20:18:31.194Z,14.60
2023-05-14T20:20:58.419Z,14.50
2023-05-14T20:23:25.338Z,14.40
2023-05-14T20:25:52.253Z,14.40
2023-05-14T20:28:19.098Z,14.30
2023-05-14T20:30:46.047Z,14.20
2023-05-14T20:33:13.790Z,14.20
2023-05-14T20:35:43.853Z,14.10
2023-05-14T20:38:12.639Z,14.10
2023-05-14T20:40:40.110Z,14.00
2023-05-14T20:43:06.980Z,13.90
2023-05-14T20:45:33.856Z,13.90
2023-05-14T20:48:00.974Z,13.80
2023-05-14T20:50:28.095Z,13.80
2023-05-14T20:52:55.682Z,13.70
2023-05-14T20:55:23.026Z,13.70
2023-05-14T20:57:50.581Z,13.70
2023-05-14T21:00:17.874Z,13.60
2023-05-14T21:02:44.984Z,13.60
2023-05-14T21:05:13.764Z,13.40
2023-05-14T21:07:40.669Z,13.40
2023-05-14T21:10:09.387Z,13.40
2023-05-14T21:12:36.266Z,13.20
2023-05-14T21:15:03.226Z,13.20
2023-05-14T21:17:30.381Z,13.10
2023-05-14T21:19:57.377Z,13.00
2023-05-14T21:22:24.736Z,12.90
2023-05-14T21:24:51.603Z,12.90
2023-05-14T21:27:18.701Z,12.80
2023-05-14T21:29:46.459Z,12.80
2023-05-14T21:32:13.530Z,12.70
2023-05-14T21:34:40.456Z,12.70
2023-05-14T21:37:07.350Z,12.60
2023-05-14T21:39:34.227Z,12.60
2023-05-14T21:42:01.077Z,12.50
2023-05-14T21:44:27.915Z,12.50
2023-05-14T21:46:54.938Z,12.50
2023-05-14T21:49:21.724Z,12.40
2023-05-14T21:51:53.049Z,12.40
2023-05-14T21:54:23.452Z,12.40
2023-05-14T21:56:50.437Z,12.30
2023-05-14T21:59:17.424Z,12.30
2023-05-14T22:04:14.264Z,12.30
2023-05-14T22:06:41.939Z,12.30
2023-05-14T22:09:11.411Z,12.20
2023-05-14T22:11:38.219Z,12.20
2023-05-14T22:14:05.107Z,12.20
2023-05-14T22:16:32.804Z,12.20
2023-05-14T22:18:59.802Z,12.10
2023-05-14T22:21:26.678Z,12.10
2023-05-14T22:23:53.821Z,12.00
2023-05-14T22:26:21.724Z,12.00
2023-05-14T22:28:49.626Z,12.00
2023-05-14T22:31:16.524Z,12.00
2023-05-14T22:33:43.592Z,12.00
2023-05-14T22:36:10.831Z,11.90
2023-05-14T22:38:38.285Z,11.90
2023-05-14T22:41:05.279Z,11.90
2023-05-14T22:43:32.062Z,11.80
2023-05-14T22:45:59.007Z,11.80
2023-05-14T22:48:25.855Z,11.80
2023-05-14T22:50:53.356Z,11.80
2023-05-14T22:53:20.280Z,11.70
2023-05-14T22:55:47.071Z,11.70
2023-05-14T22:58:13.847Z,11.70
2023-05-14T23:00:40.709Z,11.70
2023-05-14T23:03:07.736Z,11.70
2023-05-14T23:05:34.903Z,11.70
2023-05-14T23:08:01.823Z,11.60
2023-05-14T23:10:28.902Z,11.60
2023-05-14T23:12:55.819Z,11.60
2023-05-14T23:15:22.795Z,11.60
2023-05-14T23:17:49.895Z,11.60
2023-05-14T23:20:16.821Z,11.60
2023-05-14T23:22:43.661Z,11.60
2023-05-14T23:25:10.552Z,11.50
2023-05-14T23:27:37.404Z,11.50
2023-05-14T23:30:04.864Z,11.50
2023-05-14T23:32:31.732Z,11.50
2023-05-14T23:34:58.543Z,11.50
2023-05-14T23:37:25.643Z,11.50
2023-05-14T23:39:52.768Z,11.50
2023-05-14T23:42:20.280Z,11.40
2023-05-14T23:44:47.188Z,11.40
2023-05-14T23:47:14.037Z,11.40
2023-05-14T23:49:40.890Z,11.40
2023-05-14T23:52:08.199Z,11.40
2023-05-14T23:54:35.048Z,11.40
2023-05-14T23:57:03.084Z,11.40
2023-05-14T23:59:30.187Z,11.40
